Nashville, TN (JWN)

Redbird FMX


Given the close proximity to downtown Nashville, Tennessee, John Tune (JWN) is a great place for the general aviation enthusiast or for someone learning how to fly. Wings of Eagles Aviation’s office is located in Hangar 1, and is accessible from the road or the ramp. The FBO is open 24 hours a day 7 days a week so there will always be someone available for help or fuel.

Address:
210 Tune Airport Dr.
Nashville, TN 37209

Phone: (615) 979-9222

Business Hours:
Monday-Sunday 7a-10p

Wings JWN

NOAA Weather

Nashville, TN

Last Updated on Jun 24 2017, 11:53 am CDT

Current Conditions: Mostly Cloudy

NOAA Icon

Temp: 82°F

Wind: NW at 11mph

Humidity: 53%

Heat Index: 83°F

Your 5-Day Forecast at a Glance

Available data for KBNA from the past 2 hours
NASHVILLE, TN
Metar
KBNA 241653Z 32010KT 10SM SCT035 BKN250 28/17 A3007 RMK AO2 SLP175 T02780172

16:53 UTC

Wind: 320° 10kt

Visibility: 10 SM

Sky: SCT 3500 ft

Temp: 28 deg C / 82.4 deg F

Dewpoint: 17 deg C / 62.6 deg F

Pressure: 30.07 inHg

TAF
KBNA 241120Z 2412/2512 31004KT P6SM BKN250 FM241700 33008G15KT P6SM SCT040 FM250000 35006KT P6SM SKC
Pirep (1)
BNA UA /OV RQZ002030/TM 1509/FL370/TP A320/TB LGT CHOP/IC ZTLFD